createdAt,value
2018-09-25T11:55:13.904Z,38.60
2018-09-25T11:56:12.817Z,37.50
2018-09-25T11:57:12.640Z,36.88
2018-09-25T11:58:13.060Z,37.68
2018-09-25T11:59:12.887Z,37.18
2018-09-25T12:00:12.741Z,37.37
2018-09-25T12:01:12.500Z,36.96
2018-09-25T12:02:12.303Z,37.35
2018-09-25T12:03:12.222Z,36.94
2018-09-25T12:04:12.125Z,36.25
2018-09-25T12:05:11.903Z,36.65
2018-09-25T12:06:11.927Z,35.05
2018-09-25T12:07:11.700Z,34.94
2018-09-25T12:08:11.948Z,34.93
2018-09-25T12:09:11.441Z,35.03
2018-09-25T12:10:11.666Z,34.73
2018-09-25T12:11:11.567Z,33.81
2018-09-25T12:12:11.221Z,34.11
2018-09-25T12:13:11.098Z,33.81
2018-09-25T12:14:11.246Z,32.51
2018-09-25T12:15:10.858Z,32.61
2018-09-25T12:16:10.903Z,33.51
2018-09-25T12:17:11.082Z,33.01
2018-09-25T12:18:11.505Z,33.01
2018-09-25T12:42:31.543Z,32.09
2018-09-25T12:43:32.248Z,32.70
2018-09-25T12:44:31.303Z,32.59
2018-09-25T12:45:31.648Z,33.00
2018-09-25T12:46:31.664Z,32.70
2018-09-25T12:47:31.325Z,32.40
2018-09-25T12:48:31.278Z,32.79
2018-09-25T12:49:31.421Z,32.89
2018-09-25T12:50:30.997Z,32.20
2018-09-25T12:51:31.906Z,32.79
2018-09-25T12:52:30.969Z,32.50
2018-09-25T12:53:31.425Z,33.00
2018-09-25T12:54:34.979Z,32.70
2018-09-25T12:55:31.423Z,32.09
2018-09-25T12:56:30.201Z,32.38
2018-09-25T12:57:29.986Z,32.98
2018-09-25T12:58:30.485Z,32.58
2018-09-25T12:59:31.100Z,33.50
2018-09-25T13:00:29.824Z,33.88
2018-09-25T13:01:30.460Z,34.98
2018-09-25T13:02:30.421Z,34.78
2018-09-25T13:03:29.802Z,35.78
2018-09-25T13:04:30.586Z,35.88
2018-09-25T13:05:28.819Z,35.88
2018-09-25T13:06:28.849Z,38.87
2018-09-25T13:07:45.194Z,36.38
2018-09-25T13:08:40.142Z,36.96
2018-09-25T13:09:30.393Z,37.06
2018-09-25T13:10:28.361Z,36.46
2018-09-25T13:11:29.199Z,36.84
2018-09-25T13:12:28.502Z,36.34
2018-09-25T13:13:28.038Z,37.54
2018-09-25T13:14:28.221Z,36.93
2018-09-25T13:15:27.964Z,36.74
2018-09-25T13:16:29.727Z,36.52
2018-09-25T13:17:28.501Z,37.62
2018-09-25T13:18:28.100Z,37.42
2018-09-25T13:19:27.886Z,37.72
2018-09-25T13:20:27.283Z,36.93
2018-09-25T13:21:27.779Z,37.60
2018-09-25T13:22:27.903Z,37.40
2018-09-25T13:23:27.402Z,37.90
2018-09-25T13:24:27.264Z,36.82
2018-09-25T13:25:26.544Z,37.10
2018-09-25T13:26:27.257Z,36.51
2018-09-25T13:27:26.960Z,37.10
2018-09-25T13:28:26.799Z,36.61
2018-09-25T13:29:26.759Z,36.51
2018-09-25T13:30:26.059Z,36.91
2018-09-25T13:31:25.724Z,36.51
2018-09-25T13:32:26.642Z,36.80
2018-09-25T13:33:25.526Z,36.31
2018-09-25T13:34:26.459Z,37.01
2018-09-25T13:35:25.640Z,36.21
2018-09-25T13:36:26.083Z,38.20
2018-09-25T13:37:25.338Z,38.12
2018-09-25T13:38:26.704Z,37.92
2018-09-25T13:39:25.001Z,38.02
2018-09-25T13:40:25.803Z,37.32
2018-09-25T13:41:24.702Z,37.52
2018-09-25T13:42:25.303Z,37.42
2018-09-25T13:43:24.820Z,37.52
2018-09-25T13:44:25.124Z,37.52
2018-09-25T13:45:24.327Z,37.74
2018-09-25T13:46:23.879Z,38.04
2018-09-25T13:47:23.690Z,37.94
2018-09-25T13:48:23.824Z,38.14
2018-09-25T13:49:23.626Z,38.24
2018-09-25T13:50:23.641Z,38.34
2018-09-25T13:51:23.836Z,38.36
2018-09-25T13:52:23.244Z,38.36
2018-09-25T13:53:22.799Z,37.86
2018-09-25T13:54:23.448Z,37.96
2018-09-25T13:55:23.343Z,38.66
2018-09-25T13:56:23.046Z,38.76
2018-09-25T13:57:23.144Z,38.76
2018-09-25T13:58:22.542Z,38.48
2018-09-25T13:59:22.309Z,38.87
2018-09-25T14:00:22.485Z,39.28
2018-09-25T14:01:22.138Z,39.37
2018-09-25T14:02:22.433Z,39.28
2018-09-25T14:03:21.510Z,39.18
2018-09-25T14:04:40.008Z,39.87
2018-09-25T14:05:21.247Z,40.08
2018-09-25T14:06:21.360Z,40.45
2018-09-25T14:07:20.881Z,41.27
2018-09-25T14:08:21.533Z,41.96
2018-09-25T14:09:21.632Z,43.65
2018-09-25T14:10:23.657Z,33.16
2018-09-25T14:11:20.035Z,27.50
2018-09-25T14:12:19.815Z,29.01
2018-09-25T14:13:20.286Z,28.44
2018-09-25T14:14:19.534Z,31.26
2018-09-25T14:15:19.916Z,31.20
2018-09-25T14:16:20.142Z,30.73
2018-09-25T14:17:19.093Z,31.26
2018-09-25T14:18:19.634Z,30.15
2018-09-25T14:19:18.935Z,32.03
2018-09-25T14:20:18.755Z,34.50
2018-09-25T14:21:20.113Z,33.04
2018-09-25T14:22:18.616Z,33.43
2018-09-25T14:23:18.198Z,34.06
2018-09-25T14:24:18.100Z,35.65
2018-09-25T14:25:18.654Z,36.68
2018-09-25T14:26:17.756Z,38.20
2018-09-25T14:27:17.631Z,37.00
2018-09-25T14:28:18.378Z,38.23
2018-09-25T14:29:17.400Z,45.15
2018-09-25T14:30:17.564Z,44.49
2018-09-25T14:31:17.183Z,44.86
2018-09-25T14:32:17.032Z,44.51
2018-09-25T14:33:16.794Z,40.23
2018-09-25T14:34:16.741Z,41.05
2018-09-25T14:35:16.482Z,42.33
2018-09-25T14:36:16.570Z,40.82
2018-09-25T14:37:16.198Z,37.70
2018-09-25T14:38:16.138Z,40.82
2018-09-25T14:39:15.921Z,34.91
2018-09-25T14:40:15.809Z,35.11
2018-09-25T14:41:15.704Z,34.05
2018-09-25T14:42:15.494Z,37.42
2018-09-25T14:43:15.362Z,36.85
2018-09-25T14:44:15.296Z,36.94
2018-09-25T14:45:15.156Z,39.19
2018-09-25T14:46:15.714Z,38.08
2018-09-25T14:47:14.907Z,38.28
2018-09-25T14:48:19.169Z,51.17
